sensor_id;sensor_type;location;lat;lon;timestamp;temperature;humidity
10344;DHT22;5217;43.960;10.954;2023-02-21T00:01:46;17.00;98.00
10344;DHT22;5217;43.960;10.954;2023-02-21T00:04:32;17.00;97.70
10344;DHT22;5217;43.960;10.954;2023-02-21T00:07:18;17.00;97.70
10344;DHT22;5217;43.960;10.954;2023-02-21T00:10:05;17.00;97.80
10344;DHT22;5217;43.960;10.954;2023-02-21T00:12:52;17.00;97.90
10344;DHT22;5217;43.960;10.954;2023-02-21T00:15:38;17.00;97.90
10344;DHT22;5217;43.960;10.954;2023-02-21T00:18:23;17.00;98.00
10344;DHT22;5217;43.960;10.954;2023-02-21T00:21:09;17.00;98.10
10344;DHT22;5217;43.960;10.954;2023-02-21T00:23:55;17.00;98.20
10344;DHT22;5217;43.960;10.954;2023-02-21T00:26:40;16.90;98.20
10344;DHT22;5217;43.960;10.954;2023-02-21T00:29:27;16.90;98.20
10344;DHT22;5217;43.960;10.954;2023-02-21T00:32:13;16.90;98.30
10344;DHT22;5217;43.960;10.954;2023-02-21T00:34:59;16.90;98.40
10344;DHT22;5217;43.960;10.954;2023-02-21T00:37:48;16.90;98.40
10344;DHT22;5217;43.960;10.954;2023-02-21T00:40:34;16.90;98.50
10344;DHT22;5217;43.960;10.954;2023-02-21T00:43:24;16.90;98.50
10344;DHT22;5217;43.960;10.954;2023-02-21T00:46:13;16.90;98.60
10344;DHT22;5217;43.960;10.954;2023-02-21T00:48:59;16.90;98.60
10344;DHT22;5217;43.960;10.954;2023-02-21T00:51:45;16.90;98.70
10344;DHT22;5217;43.960;10.954;2023-02-21T00:54:31;16.90;98.70
10344;DHT22;5217;43.960;10.954;2023-02-21T00:57:17;16.90;98.80
10344;DHT22;5217;43.960;10.954;2023-02-21T01:00:03;16.90;98.80
10344;DHT22;5217;43.960;10.954;2023-02-21T01:02:51;16.90;98.80
10344;DHT22;5217;43.960;10.954;2023-02-21T01:05:36;16.90;98.90
10344;DHT22;5217;43.960;10.954;2023-02-21T01:08:22;16.80;98.90
10344;DHT22;5217;43.960;10.954;2023-02-21T01:11:13;16.90;99.00
10344;DHT22;5217;43.960;10.954;2023-02-21T01:13:59;16.90;99.00
10344;DHT22;5217;43.960;10.954;2023-02-21T01:16:45;16.80;98.90
10344;DHT22;5217;43.960;10.954;2023-02-21T01:19:40;16.80;99.00
10344;DHT22;5217;43.960;10.954;2023-02-21T01:22:26;16.80;99.00
10344;DHT22;5217;43.960;10.954;2023-02-21T01:25:13;16.80;99.00
10344;DHT22;5217;43.960;10.954;2023-02-21T01:27:59;16.70;98.90
10344;DHT22;5217;43.960;10.954;2023-02-21T01:30:45;16.70;99.00
10344;DHT22;5217;43.960;10.954;2023-02-21T01:33:34;16.80;99.10
10344;DHT22;5217;43.960;10.954;2023-02-21T01:36:22;16.70;99.10
10344;DHT22;5217;43.960;10.954;2023-02-21T01:39:08;16.70;99.20
10344;DHT22;5217;43.960;10.954;2023-02-21T01:41:54;16.70;99.20
10344;DHT22;5217;43.960;10.954;2023-02-21T01:44:41;16.70;99.30
10344;DHT22;5217;43.960;10.954;2023-02-21T01:47:28;16.70;99.30
10344;DHT22;5217;43.960;10.954;2023-02-21T01:50:20;16.70;99.40
10344;DHT22;5217;43.960;10.954;2023-02-21T01:53:11;16.70;99.50
10344;DHT22;5217;43.960;10.954;2023-02-21T01:55:59;16.70;99.60
10344;DHT22;5217;43.960;10.954;2023-02-21T01:58:48;16.70;99.60
10344;DHT22;5217;43.960;10.954;2023-02-21T02:01:38;16.70;99.60
10344;DHT22;5217;43.960;10.954;2023-02-21T02:04:25;16.60;99.50
10344;DHT22;5217;43.960;10.954;2023-02-21T02:07:11;16.70;99.60
10344;DHT22;5217;43.960;10.954;2023-02-21T02:09:57;16.60;99.50
10344;DHT22;5217;43.960;10.954;2023-02-21T02:13:07;16.60;99.50
10344;DHT22;5217;43.960;10.954;2023-02-21T02:15:46;16.60;99.50
10344;DHT22;5217;43.960;10.954;2023-02-21T02:18:33;16.60;99.50
10344;DHT22;5217;43.960;10.954;2023-02-21T02:21:41;16.60;99.60
10344;DHT22;5217;43.960;10.954;2023-02-21T02:24:55;16.60;99.60
10344;DHT22;5217;43.960;10.954;2023-02-21T02:27:49;16.50;99.70
10344;DHT22;5217;43.960;10.954;2023-02-21T02:33:53;16.50;99.80
10344;DHT22;5217;43.960;10.954;2023-02-21T02:36:31;16.50;99.90
10344;DHT22;5217;43.960;10.954;2023-02-21T02:39:04;16.50;99.90
10344;DHT22;5217;43.960;10.954;2023-02-21T02:41:46;16.50;99.90
10344;DHT22;5217;43.960;10.954;2023-02-21T02:44:20;16.50;99.90
10344;DHT22;5217;43.960;10.954;2023-02-21T02:46:52;16.50;99.90
10344;DHT22;5217;43.960;10.954;2023-02-21T02:49:25;16.50;99.90
10344;DHT22;5217;43.960;10.954;2023-02-21T02:52:02;16.50;99.90
10344;DHT22;5217;43.960;10.954;2023-02-21T02:54:31;16.50;99.90
10344;DHT22;5217;43.960;10.954;2023-02-21T02:57:00;16.50;99.90
10344;DHT22;5217;43.960;10.954;2023-02-21T02:59:31;16.50;99.90
10344;DHT22;5217;43.960;10.954;2023-02-21T03:02:18;16.50;99.90
10344;DHT22;5217;43.960;10.954;2023-02-21T03:05:10;16.50;99.90
10344;DHT22;5217;43.960;10.954;2023-02-21T03:07:54;16.40;99.90
10344;DHT22;5217;43.960;10.954;2023-02-21T03:10:35;16.40;99.90
10344;DHT22;5217;43.960;10.954;2023-02-21T03:13:10;16.40;99.90
10344;DHT22;5217;43.960;10.954;2023-02-21T03:15:46;16.40;99.90
10344;DHT22;5217;43.960;10.954;2023-02-21T03:18:21;16.40;99.90
10344;DHT22;5217;43.960;10.954;2023-02-21T03:20:55;16.40;99.90
10344;DHT22;5217;43.960;10.954;2023-02-21T03:23:28;16.40;99.90
10344;DHT22;5217;43.960;10.954;2023-02-21T03:26:00;16.40;99.90
10344;DHT22;5217;43.960;10.954;2023-02-21T03:28:32;16.40;99.90
10344;DHT22;5217;43.960;10.954;2023-02-21T03:31:02;16.40;99.90
10344;DHT22;5217;43.960;10.954;2023-02-21T03:33:33;16.40;99.90
10344;DHT22;5217;43.960;10.954;2023-02-21T03:36:04;16.30;99.90
10344;DHT22;5217;43.960;10.954;2023-02-21T03:38:34;16.30;99.90
10344;DHT22;5217;43.960;10.954;2023-02-21T03:41:03;16.30;99.90
10344;DHT22;5217;43.960;10.954;2023-02-21T03:43:32;16.30;99.90
10344;DHT22;5217;43.960;10.954;2023-02-21T03:46:01;16.30;99.90
10344;DHT22;5217;43.960;10.954;2023-02-21T03:48:29;16.30;99.90
10344;DHT22;5217;43.960;10.954;2023-02-21T03:50:58;16.30;99.90
10344;DHT22;5217;43.960;10.954;2023-02-21T03:53:27;16.30;99.90
10344;DHT22;5217;43.960;10.954;2023-02-21T03:55:56;16.30;99.90
10344;DHT22;5217;43.960;10.954;2023-02-21T03:58:25;16.30;99.90
10344;DHT22;5217;43.960;10.954;2023-02-21T04:00:53;16.30;99.90
10344;DHT22;5217;43.960;10.954;2023-02-21T04:03:21;16.30;99.90
10344;DHT22;5217;43.960;10.954;2023-02-21T04:05:50;16.30;99.90
10344;DHT22;5217;43.960;10.954;2023-02-21T04:08:18;16.30;99.90
10344;DHT22;5217;43.960;10.954;2023-02-21T04:10:46;16.30;99.90
10344;DHT22;5217;43.960;10.954;2023-02-21T04:13:20;16.20;99.90
10344;DHT22;5217;43.960;10.954;2023-02-21T04:15:50;16.30;99.90
10344;DHT22;5217;43.960;10.954;2023-02-21T04:18:19;16.20;99.90
10344;DHT22;5217;43.960;10.954;2023-02-21T04:20:47;16.20;99.90
10344;DHT22;5217;43.960;10.954;2023-02-21T04:23:17;16.20;99.90
10344;DHT22;5217;43.960;10.954;2023-02-21T04:25:46;16.20;99.90
10344;DHT22;5217;43.960;10.954;2023-02-21T04:28:14;16.20;99.90
10344;DHT22;5217;43.960;10.954;2023-02-21T04:30:44;16.20;99.90
10344;DHT22;5217;43.960;10.954;2023-02-21T04:33:13;16.20;99.90
10344;DHT22;5217;43.960;10.954;2023-02-21T04:35:41;16.10;99.90
10344;DHT22;5217;43.960;10.954;2023-02-21T04:38:10;16.20;99.90
10344;DHT22;5217;43.960;10.954;2023-02-21T04:40:38;16.20;99.90
10344;DHT22;5217;43.960;10.954;2023-02-21T04:43:06;16.20;99.90
10344;DHT22;5217;43.960;10.954;2023-02-21T04:45:35;16.10;99.90
10344;DHT22;5217;43.960;10.954;2023-02-21T04:48:05;16.20;99.90
10344;DHT22;5217;43.960;10.954;2023-02-21T04:50:33;16.20;99.90
10344;DHT22;5217;43.960;10.954;2023-02-21T04:53:02;16.20;99.90
10344;DHT22;5217;43.960;10.954;2023-02-21T04:55:30;16.20;99.90
10344;DHT22;5217;43.960;10.954;2023-02-21T04:57:58;16.10;99.90
10344;DHT22;5217;43.960;10.954;2023-02-21T05:00:27;16.10;99.90
10344;DHT22;5217;43.960;10.954;2023-02-21T05:02:55;16.10;99.90
10344;DHT22;5217;43.960;10.954;2023-02-21T05:05:25;16.10;99.90
10344;DHT22;5217;43.960;10.954;2023-02-21T05:07:53;16.10;99.90
10344;DHT22;5217;43.960;10.954;2023-02-21T05:10:22;16.10;99.90
10344;DHT22;5217;43.960;10.954;2023-02-21T05:13:02;16.10;99.90
10344;DHT22;5217;43.960;10.954;2023-02-21T05:15:30;16.10;99.90
10344;DHT22;5217;43.960;10.954;2023-02-21T05:17:59;16.10;99.90
10344;DHT22;5217;43.960;10.954;2023-02-21T05:20:28;16.10;99.90
10344;DHT22;5217;43.960;10.954;2023-02-21T05:22:57;16.10;99.90
10344;DHT22;5217;43.960;10.954;2023-02-21T05:25:37;16.10;99.90
10344;DHT22;5217;43.960;10.954;2023-02-21T05:28:05;16.10;99.90
10344;DHT22;5217;43.960;10.954;2023-02-21T05:30:34;16.10;99.90
10344;DHT22;5217;43.960;10.954;2023-02-21T05:33:02;16.10;99.90
10344;DHT22;5217;43.960;10.954;2023-02-21T05:35:32;16.10;99.90
10344;DHT22;5217;43.960;10.954;2023-02-21T05:38:00;16.10;99.90
10344;DHT22;5217;43.960;10.954;2023-02-21T05:40:29;16.10;99.90
10344;DHT22;5217;43.960;10.954;2023-02-21T05:42:57;16.10;99.90
10344;DHT22;5217;43.960;10.954;2023-02-21T05:45:25;16.10;99.90
10344;DHT22;5217;43.960;10.954;2023-02-21T05:47:54;16.10;99.90
10344;DHT22;5217;43.960;10.954;2023-02-21T05:50:26;16.10;99.90
10344;DHT22;5217;43.960;10.954;2023-02-21T05:52:56;16.10;99.90
10344;DHT22;5217;43.960;10.954;2023-02-21T05:55:25;16.10;99.90
10344;DHT22;5217;43.960;10.954;2023-02-21T05:57:53;16.10;99.90
10344;DHT22;5217;43.960;10.954;2023-02-21T06:00:23;16.10;99.90
10344;DHT22;5217;43.960;10.954;2023-02-21T06:02:54;16.10;99.90
10344;DHT22;5217;43.960;10.954;2023-02-21T06:05:23;16.10;99.90
10344;DHT22;5217;43.960;10.954;2023-02-21T06:07:51;16.10;99.90
10344;DHT22;5217;43.960;10.954;2023-02-21T06:10:21;16.10;99.90
10344;DHT22;5217;43.960;10.954;2023-02-21T06:12:49;16.10;99.90
10344;DHT22;5217;43.960;10.954;2023-02-21T06:15:18;16.10;99.90
10344;DHT22;5217;43.960;10.954;2023-02-21T06:17:46;16.00;99.90
10344;DHT22;5217;43.960;10.954;2023-02-21T06:20:15;16.10;99.90
10344;DHT22;5217;43.960;10.954;2023-02-21T06:22:44;16.10;99.90
10344;DHT22;5217;43.960;10.954;2023-02-21T06:25:13;16.10;99.90
10344;DHT22;5217;43.960;10.954;2023-02-21T06:27:43;16.10;99.90
10344;DHT22;5217;43.960;10.954;2023-02-21T06:30:12;16.00;99.90
10344;DHT22;5217;43.960;10.954;2023-02-21T06:32:41;16.10;99.90
10344;DHT22;5217;43.960;10.954;2023-02-21T06:35:10;16.10;99.90
10344;DHT22;5217;43.960;10.954;2023-02-21T06:37:38;16.00;99.90
10344;DHT22;5217;43.960;10.954;2023-02-21T06:40:07;16.00;99.90
10344;DHT22;5217;43.960;10.954;2023-02-21T06:42:36;16.00;99.90
10344;DHT22;5217;43.960;10.954;2023-02-21T06:45:07;16.00;99.90
10344;DHT22;5217;43.960;10.954;2023-02-21T06:47:35;16.00;99.90
10344;DHT22;5217;43.960;10.954;2023-02-21T06:50:04;16.00;99.90
10344;DHT22;5217;43.960;10.954;2023-02-21T06:52:36;16.00;99.90
10344;DHT22;5217;43.960;10.954;2023-02-21T06:55:06;16.00;99.90
10344;DHT22;5217;43.960;10.954;2023-02-21T06:57:34;16.00;99.90
10344;DHT22;5217;43.960;10.954;2023-02-21T07:00:03;16.00;99.90
10344;DHT22;5217;43.960;10.954;2023-02-21T07:02:34;16.00;99.90
10344;DHT22;5217;43.960;10.954;2023-02-21T07:05:05;16.00;99.90
10344;DHT22;5217;43.960;10.954;2023-02-21T07:07:34;16.10;99.90
10344;DHT22;5217;43.960;10.954;2023-02-21T07:10:03;16.10;99.90
10344;DHT22;5217;43.960;10.954;2023-02-21T07:12:32;16.00;99.90
10344;DHT22;5217;43.960;10.954;2023-02-21T07:15:00;16.10;99.90
10344;DHT22;5217;43.960;10.954;2023-02-21T07:17:29;16.00;99.90
10344;DHT22;5217;43.960;10.954;2023-02-21T07:19:58;16.10;99.90
10344;DHT22;5217;43.960;10.954;2023-02-21T07:22:27;16.10;99.90
10344;DHT22;5217;43.960;10.954;2023-02-21T07:24:55;16.10;99.90
10344;DHT22;5217;43.960;10.954;2023-02-21T07:27:24;16.00;99.90
10344;DHT22;5217;43.960;10.954;2023-02-21T07:29:52;16.00;99.90
10344;DHT22;5217;43.960;10.954;2023-02-21T07:32:20;16.00;99.90
10344;DHT22;5217;43.960;10.954;2023-02-21T07:34:48;16.00;99.90
10344;DHT22;5217;43.960;10.954;2023-02-21T07:37:18;16.00;99.90
10344;DHT22;5217;43.960;10.954;2023-02-21T07:39:46;16.00;99.90
10344;DHT22;5217;43.960;10.954;2023-02-21T07:42:14;16.00;99.90
10344;DHT22;5217;43.960;10.954;2023-02-21T07:44:43;16.10;99.90
10344;DHT22;5217;43.960;10.954;2023-02-21T07:47:11;16.10;99.90
10344;DHT22;5217;43.960;10.954;2023-02-21T07:49:40;16.00;99.90
10344;DHT22;5217;43.960;10.954;2023-02-21T07:52:08;16.00;99.90
10344;DHT22;5217;43.960;10.954;2023-02-21T07:54:38;16.00;99.90
10344;DHT22;5217;43.960;10.954;2023-02-21T07:57:06;16.10;99.90
10344;DHT22;5217;43.960;10.954;2023-02-21T07:59:35;16.10;99.90
10344;DHT22;5217;43.960;10.954;2023-02-21T08:02:04;16.10;99.90
10344;DHT22;5217;43.960;10.954;2023-02-21T08:04:32;16.00;99.90
10344;DHT22;5217;43.960;10.954;2023-02-21T08:07:02;16.00;99.90
10344;DHT22;5217;43.960;10.954;2023-02-21T08:12:02;16.10;99.90
10344;DHT22;5217;43.960;10.954;2023-02-21T08:14:31;16.10;99.90
10344;DHT22;5217;43.960;10.954;2023-02-21T08:16:59;16.10;99.90
10344;DHT22;5217;43.960;10.954;2023-02-21T08:19:28;16.10;99.90
10344;DHT22;5217;43.960;10.954;2023-02-21T08:21:56;16.10;99.90
10344;DHT22;5217;43.960;10.954;2023-02-21T08:24:24;16.10;99.90
10344;DHT22;5217;43.960;10.954;2023-02-21T08:26:53;16.10;99.90
10344;DHT22;5217;43.960;10.954;2023-02-21T08:29:22;16.10;99.90
10344;DHT22;5217;43.960;10.954;2023-02-21T08:31:51;16.10;99.90
10344;DHT22;5217;43.960;10.954;2023-02-21T08:34:19;16.10;99.90
10344;DHT22;5217;43.960;10.954;2023-02-21T08:36:48;16.10;99.90
10344;DHT22;5217;43.960;10.954;2023-02-21T08:39:16;16.10;99.90
10344;DHT22;5217;43.960;10.954;2023-02-21T08:41:45;16.20;99.90
10344;DHT22;5217;43.960;10.954;2023-02-21T08:44:16;16.20;99.90
10344;DHT22;5217;43.960;10.954;2023-02-21T08:46:49;16.10;99.90
10344;DHT22;5217;43.960;10.954;2023-02-21T08:49:17;16.20;99.90
10344;DHT22;5217;43.960;10.954;2023-02-21T08:51:46;16.10;99.90
10344;DHT22;5217;43.960;10.954;2023-02-21T08:54:14;16.10;99.90
10344;DHT22;5217;43.960;10.954;2023-02-21T08:56:42;16.20;99.90
10344;DHT22;5217;43.960;10.954;2023-02-21T08:59:11;16.20;99.90
10344;DHT22;5217;43.960;10.954;2023-02-21T09:01:39;16.10;99.90
10344;DHT22;5217;43.960;10.954;2023-02-21T09:04:09;16.20;99.90
10344;DHT22;5217;43.960;10.954;2023-02-21T09:06:38;16.10;99.90
10344;DHT22;5217;43.960;10.954;2023-02-21T09:09:06;16.10;99.90
10344;DHT22;5217;43.960;10.954;2023-02-21T09:11:34;16.10;99.90
10344;DHT22;5217;43.960;10.954;2023-02-21T09:14:03;16.20;99.90
10344;DHT22;5217;43.960;10.954;2023-02-21T09:16:32;16.20;99.90
10344;DHT22;5217;43.960;10.954;2023-02-21T09:19:01;16.20;99.90
10344;DHT22;5217;43.960;10.954;2023-02-21T09:21:35;16.20;99.90
10344;DHT22;5217;43.960;10.954;2023-02-21T09:24:11;16.20;99.90
10344;DHT22;5217;43.960;10.954;2023-02-21T09:26:39;16.20;99.90
10344;DHT22;5217;43.960;10.954;2023-02-21T09:29:08;16.30;99.90
10344;DHT22;5217;43.960;10.954;2023-02-21T09:31:38;16.20;99.90
10344;DHT22;5217;43.960;10.954;2023-02-21T09:34:06;16.30;99.90
10344;DHT22;5217;43.960;10.954;2023-02-21T09:36:36;16.20;99.90
10344;DHT22;5217;43.960;10.954;2023-02-21T09:39:04;16.20;99.90
10344;DHT22;5217;43.960;10.954;2023-02-21T09:41:33;16.30;99.90
10344;DHT22;5217;43.960;10.954;2023-02-21T09:44:03;16.30;99.90
10344;DHT22;5217;43.960;10.954;2023-02-21T09:46:35;16.30;99.90
10344;DHT22;5217;43.960;10.954;2023-02-21T09:49:13;16.30;99.90
10344;DHT22;5217;43.960;10.954;2023-02-21T09:51:46;16.30;99.90
10344;DHT22;5217;43.960;10.954;2023-02-21T09:54:21;16.40;99.90
10344;DHT22;5217;43.960;10.954;2023-02-21T09:56:50;16.40;99.90
10344;DHT22;5217;43.960;10.954;2023-02-21T09:59:18;16.40;99.90
10344;DHT22;5217;43.960;10.954;2023-02-21T10:02:00;16.40;99.90
10344;DHT22;5217;43.960;10.954;2023-02-21T10:04:39;16.40;99.90
10344;DHT22;5217;43.960;10.954;2023-02-21T10:07:15;16.40;99.90
10344;DHT22;5217;43.960;10.954;2023-02-21T10:09:51;16.40;99.90
10344;DHT22;5217;43.960;10.954;2023-02-21T10:12:25;16.40;99.90
10344;DHT22;5217;43.960;10.954;2023-02-21T10:15:08;16.40;99.90
10344;DHT22;5217;43.960;10.954;2023-02-21T10:17:42;16.40;99.90
10344;DHT22;5217;43.960;10.954;2023-02-21T10:20:15;16.40;99.90
10344;DHT22;5217;43.960;10.954;2023-02-21T10:22:48;16.50;99.90
10344;DHT22;5217;43.960;10.954;2023-02-21T10:25:21;16.40;99.90
10344;DHT22;5217;43.960;10.954;2023-02-21T10:27:51;16.50;99.90
10344;DHT22;5217;43.960;10.954;2023-02-21T10:30:26;16.40;99.90
10344;DHT22;5217;43.960;10.954;2023-02-21T10:32:56;16.40;99.90
10344;DHT22;5217;43.960;10.954;2023-02-21T10:35:24;16.50;99.90
10344;DHT22;5217;43.960;10.954;2023-02-21T10:37:56;16.40;99.90
10344;DHT22;5217;43.960;10.954;2023-02-21T10:40:30;16.40;99.90
10344;DHT22;5217;43.960;10.954;2023-02-21T10:43:04;16.40;99.90
10344;DHT22;5217;43.960;10.954;2023-02-21T10:45:36;16.40;99.90
10344;DHT22;5217;43.960;10.954;2023-02-21T10:48:06;16.40;99.90
10344;DHT22;5217;43.960;10.954;2023-02-21T10:50:42;16.50;99.90
10344;DHT22;5217;43.960;10.954;2023-02-21T10:53:25;16.50;99.90
10344;DHT22;5217;43.960;10.954;2023-02-21T10:56:23;16.50;99.90
10344;DHT22;5217;43.960;10.954;2023-02-21T10:58:55;16.50;99.90
10344;DHT22;5217;43.960;10.954;2023-02-21T11:01:32;16.50;99.90
10344;DHT22;5217;43.960;10.954;2023-02-21T11:04:04;16.50;99.90
10344;DHT22;5217;43.960;10.954;2023-02-21T11:06:35;16.50;99.90
10344;DHT22;5217;43.960;10.954;2023-02-21T11:09:33;16.50;99.90
10344;DHT22;5217;43.960;10.954;2023-02-21T11:12:05;16.50;99.90
10344;DHT22;5217;43.960;10.954;2023-02-21T11:14:38;16.50;99.90
10344;DHT22;5217;43.960;10.954;2023-02-21T11:17:16;16.50;99.90
10344;DHT22;5217;43.960;10.954;2023-02-21T11:19:47;16.50;99.90
10344;DHT22;5217;43.960;10.954;2023-02-21T11:22:17;16.50;99.90
10344;DHT22;5217;43.960;10.954;2023-02-21T11:24:59;16.50;99.90
10344;DHT22;5217;43.960;10.954;2023-02-21T11:27:30;16.50;99.90
10344;DHT22;5217;43.960;10.954;2023-02-21T11:30:00;16.50;99.90
10344;DHT22;5217;43.960;10.954;2023-02-21T11:32:32;16.50;99.90
10344;DHT22;5217;43.960;10.954;2023-02-21T11:35:05;16.50;99.90
10344;DHT22;5217;43.960;10.954;2023-02-21T11:37:45;16.50;99.90
10344;DHT22;5217;43.960;10.954;2023-02-21T11:40:24;16.50;99.90
10344;DHT22;5217;43.960;10.954;2023-02-21T11:43:17;16.50;99.90
10344;DHT22;5217;43.960;10.954;2023-02-21T11:46:03;16.60;99.90
10344;DHT22;5217;43.960;10.954;2023-02-21T11:48:36;16.60;99.90
10344;DHT22;5217;43.960;10.954;2023-02-21T11:51:17;16.60;99.90
10344;DHT22;5217;43.960;10.954;2023-02-21T11:53:47;16.50;99.60
10344;DHT22;5217;43.960;10.954;2023-02-21T11:56:47;16.50;99.50
10344;DHT22;5217;43.960;10.954;2023-02-21T11:59:24;16.50;99.50
10344;DHT22;5217;43.960;10.954;2023-02-21T12:02:13;16.50;99.50
10344;DHT22;5217;43.960;10.954;2023-02-21T12:05:00;16.50;99.50
10344;DHT22;5217;43.960;10.954;2023-02-21T12:07:36;16.50;99.50
10344;DHT22;5217;43.960;10.954;2023-02-21T12:10:23;16.50;99.50
10344;DHT22;5217;43.960;10.954;2023-02-21T12:13:01;16.60;99.60
10344;DHT22;5217;43.960;10.954;2023-02-21T12:15:39;16.50;99.70
10344;DHT22;5217;43.960;10.954;2023-02-21T12:18:25;16.50;99.50
10344;DHT22;5217;43.960;10.954;2023-02-21T12:21:16;16.50;99.50
10344;DHT22;5217;43.960;10.954;2023-02-21T12:23:52;16.50;99.50
10344;DHT22;5217;43.960;10.954;2023-02-21T12:26:41;16.50;99.50
10344;DHT22;5217;43.960;10.954;2023-02-21T12:32:23;16.60;99.60
10344;DHT22;5217;43.960;10.954;2023-02-21T12:37:49;16.50;99.50
10344;DHT22;5217;43.960;10.954;2023-02-21T12:40:27;16.60;99.40
10344;DHT22;5217;43.960;10.954;2023-02-21T12:43:08;16.60;99.40
10344;DHT22;5217;43.960;10.954;2023-02-21T12:45:48;16.50;99.50
10344;DHT22;5217;43.960;10.954;2023-02-21T12:48:26;16.60;99.50
10344;DHT22;5217;43.960;10.954;2023-02-21T12:51:00;16.60;99.50
10344;DHT22;5217;43.960;10.954;2023-02-21T12:53:35;16.60;99.70
10344;DHT22;5217;43.960;10.954;2023-02-21T12:56:06;16.60;99.90
10344;DHT22;5217;43.960;10.954;2023-02-21T12:58:39;16.70;99.90
10344;DHT22;5217;43.960;10.954;2023-02-21T13:01:14;16.60;99.90
10344;DHT22;5217;43.960;10.954;2023-02-21T13:04:02;16.70;99.90
10344;DHT22;5217;43.960;10.954;2023-02-21T13:06:34;16.60;99.90
10344;DHT22;5217;43.960;10.954;2023-02-21T13:09:13;16.60;99.90
10344;DHT22;5217;43.960;10.954;2023-02-21T13:11:48;16.60;99.90
10344;DHT22;5217;43.960;10.954;2023-02-21T13:14:25;16.70;99.60
10344;DHT22;5217;43.960;10.954;2023-02-21T13:16:56;16.60;99.50
10344;DHT22;5217;43.960;10.954;2023-02-21T13:19:25;16.70;99.60
10344;DHT22;5217;43.960;10.954;2023-02-21T13:22:09;16.70;99.60
10344;DHT22;5217;43.960;10.954;2023-02-21T13:25:03;16.70;99.60
10344;DHT22;5217;43.960;10.954;2023-02-21T13:27:47;16.60;99.50
10344;DHT22;5217;43.960;10.954;2023-02-21T13:30:21;16.70;99.60
10344;DHT22;5217;43.960;10.954;2023-02-21T13:32:54;16.70;99.40
10344;DHT22;5217;43.960;10.954;2023-02-21T13:35:30;16.70;99.40
10344;DHT22;5217;43.960;10.954;2023-02-21T13:37:59;16.70;99.60
10344;DHT22;5217;43.960;10.954;2023-02-21T13:40:35;16.70;99.60
10344;DHT22;5217;43.960;10.954;2023-02-21T13:43:09;16.70;99.60
10344;DHT22;5217;43.960;10.954;2023-02-21T13:45:38;16.70;99.60
10344;DHT22;5217;43.960;10.954;2023-02-21T13:48:27;16.70;99.60
10344;DHT22;5217;43.960;10.954;2023-02-21T13:50:57;16.70;99.80
10344;DHT22;5217;43.960;10.954;2023-02-21T13:53:28;16.70;99.90
10344;DHT22;5217;43.960;10.954;2023-02-21T13:56:38;16.70;99.90
10344;DHT22;5217;43.960;10.954;2023-02-21T13:59:32;16.70;99.90
10344;DHT22;5217;43.960;10.954;2023-02-21T14:02:20;16.70;99.90
10344;DHT22;5217;43.960;10.954;2023-02-21T14:04:59;16.70;99.90
10344;DHT22;5217;43.960;10.954;2023-02-21T14:07:43;16.70;99.90
10344;DHT22;5217;43.960;10.954;2023-02-21T14:10:32;16.80;99.90
10344;DHT22;5217;43.960;10.954;2023-02-21T14:13:03;16.80;99.90
10344;DHT22;5217;43.960;10.954;2023-02-21T14:15:43;16.80;99.90
10344;DHT22;5217;43.960;10.954;2023-02-21T14:18:17;16.80;99.90
10344;DHT22;5217;43.960;10.954;2023-02-21T14:20:51;16.80;99.80
10344;DHT22;5217;43.960;10.954;2023-02-21T14:23:23;16.80;99.70
10344;DHT22;5217;43.960;10.954;2023-02-21T14:25:58;16.80;99.60
10344;DHT22;5217;43.960;10.954;2023-02-21T14:29:09;16.80;99.60
10344;DHT22;5217;43.960;10.954;2023-02-21T14:31:52;16.80;99.60
10344;DHT22;5217;43.960;10.954;2023-02-21T14:34:31;16.80;99.60
10344;DHT22;5217;43.960;10.954;2023-02-21T14:37:05;16.80;99.90
10344;DHT22;5217;43.960;10.954;2023-02-21T14:39:40;16.80;99.60
10344;DHT22;5217;43.960;10.954;2023-02-21T14:48:30;16.80;99.60
10344;DHT22;5217;43.960;10.954;2023-02-21T15:00:18;16.70;99.60
10344;DHT22;5217;43.960;10.954;2023-02-21T15:02:53;16.80;99.80
10344;DHT22;5217;43.960;10.954;2023-02-21T15:05:26;16.70;99.80
10344;DHT22;5217;43.960;10.954;2023-02-21T15:08:01;16.70;99.80
10344;DHT22;5217;43.960;10.954;2023-02-21T15:10:39;16.70;99.90
10344;DHT22;5217;43.960;10.954;2023-02-21T15:13:22;16.70;99.90
10344;DHT22;5217;43.960;10.954;2023-02-21T15:15:55;16.70;99.90
10344;DHT22;5217;43.960;10.954;2023-02-21T15:18:26;16.60;99.90
10344;DHT22;5217;43.960;10.954;2023-02-21T15:21:05;16.70;99.90
10344;DHT22;5217;43.960;10.954;2023-02-21T15:23:34;16.70;99.90
10344;DHT22;5217;43.960;10.954;2023-02-21T15:26:17;16.60;99.90
10344;DHT22;5217;43.960;10.954;2023-02-21T15:29:02;16.60;99.90
10344;DHT22;5217;43.960;10.954;2023-02-21T15:31:32;16.60;99.90
10344;DHT22;5217;43.960;10.954;2023-02-21T15:34:01;16.60;99.90
10344;DHT22;5217;43.960;10.954;2023-02-21T15:36:30;16.60;99.90
10344;DHT22;5217;43.960;10.954;2023-02-21T15:39:04;16.60;99.90
10344;DHT22;5217;43.960;10.954;2023-02-21T15:41:37;16.60;99.90
10344;DHT22;5217;43.960;10.954;2023-02-21T15:44:12;16.50;99.90
10344;DHT22;5217;43.960;10.954;2023-02-21T15:46:46;16.50;99.90
10344;DHT22;5217;43.960;10.954;2023-02-21T15:49:19;16.50;99.90
10344;DHT22;5217;43.960;10.954;2023-02-21T15:51:48;16.50;99.90
10344;DHT22;5217;43.960;10.954;2023-02-21T15:54:26;16.50;99.90
10344;DHT22;5217;43.960;10.954;2023-02-21T15:57:04;16.50;99.90
10344;DHT22;5217;43.960;10.954;2023-02-21T15:59:37;16.50;99.90
10344;DHT22;5217;43.960;10.954;2023-02-21T16:02:14;16.50;99.90
10344;DHT22;5217;43.960;10.954;2023-02-21T16:04:44;16.40;99.90
10344;DHT22;5217;43.960;10.954;2023-02-21T16:07:19;16.40;99.90
10344;DHT22;5217;43.960;10.954;2023-02-21T16:09:50;16.40;99.90
10344;DHT22;5217;43.960;10.954;2023-02-21T16:12:30;16.40;99.90
10344;DHT22;5217;43.960;10.954;2023-02-21T16:15:04;16.40;99.90
10344;DHT22;5217;43.960;10.954;2023-02-21T16:17:36;16.40;99.90
10344;DHT22;5217;43.960;10.954;2023-02-21T16:20:14;16.40;99.90
10344;DHT22;5217;43.960;10.954;2023-02-21T16:22:45;16.40;99.90
10344;DHT22;5217;43.960;10.954;2023-02-21T16:25:35;16.40;99.90
10344;DHT22;5217;43.960;10.954;2023-02-21T16:28:21;16.40;99.90
10344;DHT22;5217;43.960;10.954;2023-02-21T16:30:51;16.30;99.90
10344;DHT22;5217;43.960;10.954;2023-02-21T16:33:21;16.30;99.90
10344;DHT22;5217;43.960;10.954;2023-02-21T16:35:50;16.40;99.90
10344;DHT22;5217;43.960;10.954;2023-02-21T16:38:20;16.30;99.90
10344;DHT22;5217;43.960;10.954;2023-02-21T16:40:49;16.30;99.90
10344;DHT22;5217;43.960;10.954;2023-02-21T16:43:18;16.30;99.90
10344;DHT22;5217;43.960;10.954;2023-02-21T16:45:47;16.30;99.90
10344;DHT22;5217;43.960;10.954;2023-02-21T16:48:21;16.30;99.90